Time;durP1;ratioP1;P1;durP2;ratioP2;P2;SDS_P1;SDS_P2;PMS_P1;PMS_P2;Temp;Humidity;BMP_temperature;BMP_pressure;BME280_temperature;BME280_humidity;BME280_pressure;Samples;Min_cycle;Max_cycle;Signal;HPM_P1;HPM_P2
2022/07/14 00:02:25;;;;;;;4.68;3.13;;;23.60;99.90;;;;;;5089426;28;20093;-72
2022/07/14 00:04:50;;;;;;;4.85;2.88;;;23.60;99.90;;;;;;5086511;28;20024;-71
2022/07/14 00:07:16;;;;;;;3.53;2.83;;;23.60;99.90;;;;;;5084897;28;20077;-71
2022/07/14 00:09:42;;;;;;;7.88;3.10;;;23.60;99.90;;;;;;5094240;28;20065;-71
2022/07/14 00:12:08;;;;;;;3.42;3.15;;;23.60;99.90;;;;;;5086669;28;20052;-71
2022/07/14 00:14:33;;;;;;;6.05;3.28;;;23.60;99.90;;;;;;5078903;28;20035;-70
2022/07/14 00:16:59;;;;;;;3.42;3.10;;;23.50;99.90;;;;;;5076722;28;20028;-70
2022/07/14 00:19:25;;;;;;;3.17;2.95;;;23.50;99.90;;;;;;5080152;28;20025;-70
2022/07/14 00:21:51;;;;;;;4.15;3.30;;;23.40;99.90;;;;;;5086126;28;20028;-71
2022/07/14 00:24:18;;;;;;;5.35;3.45;;;23.40;99.90;;;;;;5090812;28;20017;-71
2022/07/14 00:26:44;;;;;;;4.13;2.92;;;23.40;99.90;;;;;;5091926;28;20053;-71
2022/07/14 00:29:10;;;;;;;3.55;3.25;;;23.30;99.90;;;;;;5095290;28;20036;-71
2022/07/14 00:31:36;;;;;;;4.68;3.63;;;23.30;99.90;;;;;;5099908;28;20028;-72
2022/07/14 00:34:02;;;;;;;3.40;3.10;;;23.30;99.90;;;;;;5085788;28;20035;-70
2022/07/14 00:36:28;;;;;;;9.25;3.88;;;23.30;99.90;;;;;;5085179;28;20028;-70
2022/07/14 00:38:55;;;;;;;3.78;3.22;;;23.20;99.90;;;;;;5084539;28;20043;-71
2022/07/14 00:41:21;;;;;;;4.28;3.17;;;23.10;99.90;;;;;;5073644;28;20029;-71
2022/07/14 00:43:47;;;;;;;4.65;2.78;;;23.10;99.90;;;;;;5078399;28;20089;-71
2022/07/14 00:46:12;;;;;;;7.20;3.72;;;23.00;99.90;;;;;;5093768;28;20020;-71
2022/07/14 00:48:38;;;;;;;4.43;3.10;;;23.00;99.90;;;;;;5080263;28;20050;-71
2022/07/14 00:51:04;;;;;;;4.20;3.40;;;23.00;99.90;;;;;;5079361;28;20023;-71
2022/07/14 00:53:30;;;;;;;4.20;3.05;;;23.00;99.90;;;;;;5095908;28;20028;-71
2022/07/14 00:55:56;;;;;;;3.65;3.35;;;23.00;99.90;;;;;;5092962;28;20032;-70
2022/07/14 00:58:22;;;;;;;3.38;3.17;;;23.10;99.90;;;;;;5093442;28;20422;-71
2022/07/14 01:00:48;;;;;;;4.35;3.92;;;23.10;99.90;;;;;;5093660;28;20085;-71
2022/07/14 01:03:14;;;;;;;3.67;3.33;;;23.10;99.90;;;;;;5088816;28;20016;-71
2022/07/14 01:05:39;;;;;;;5.68;3.13;;;23.10;99.90;;;;;;5085715;28;20017;-71
2022/07/14 01:08:05;;;;;;;6.25;3.08;;;23.10;99.90;;;;;;5080438;28;20042;-71
2022/07/14 01:10:31;;;;;;;4.00;3.65;;;23.20;99.90;;;;;;5090903;28;20110;-70
2022/07/14 01:13:00;;;;;;;8.02;3.92;;;23.10;99.90;;;;;;5079151;28;20028;-71
2022/07/14 01:15:26;;;;;;;11.98;4.05;;;23.10;99.90;;;;;;5073129;28;20035;-70
2022/07/14 01:17:52;;;;;;;4.07;3.35;;;23.20;99.90;;;;;;5079218;28;20119;-70
2022/07/14 01:20:18;;;;;;;3.35;3.05;;;23.30;99.90;;;;;;5083844;28;20456;-70
2022/07/14 01:22:46;;;;;;;4.03;3.67;;;23.20;99.90;;;;;;5094889;28;20028;-72
2022/07/14 01:25:13;;;;;;;10.10;3.63;;;23.20;99.90;;;;;;5104421;28;20080;-71
2022/07/14 01:27:39;;;;;;;3.58;3.28;;;23.30;99.90;;;;;;5099200;28;20169;-74
2022/07/14 01:30:07;;;;;;;11.73;4.03;;;23.30;99.90;;;;;;5096874;28;20757;-73
2022/07/14 01:32:33;;;;;;;3.70;3.40;;;23.30;99.90;;;;;;5088575;28;20070;-73
2022/07/14 01:34:59;;;;;;;5.40;4.13;;;23.20;99.90;;;;;;5070653;28;20048;-73
2022/07/14 01:37:26;;;;;;;5.00;4.03;;;23.10;99.90;;;;;;5081267;28;20024;-73
2022/07/14 01:39:51;;;;;;;3.63;3.33;;;22.90;99.90;;;;;;5092651;28;20031;-74
2022/07/14 01:42:18;;;;;;;4.18;3.65;;;22.80;99.90;;;;;;5091136;28;20024;-74
2022/07/14 01:44:44;;;;;;;4.85;3.63;;;22.90;99.90;;;;;;5090708;28;20020;-74
2022/07/14 01:47:10;;;;;;;5.20;3.78;;;22.80;99.90;;;;;;5075761;28;20027;-73
2022/07/14 01:49:36;;;;;;;4.40;4.03;;;22.80;99.90;;;;;;5079468;28;20035;-73
2022/07/14 01:52:02;;;;;;;5.07;4.03;;;22.80;99.90;;;;;;5091971;28;20048;-72
2022/07/14 01:54:29;;;;;;;4.38;3.72;;;22.90;99.90;;;;;;5091940;28;20107;-73
2022/07/14 01:56:55;;;;;;;3.88;3.42;;;22.90;99.90;;;;;;5091718;28;20506;-72
2022/07/14 01:59:21;;;;;;;3.90;3.55;;;22.80;99.90;;;;;;5091202;28;20029;-74
2022/07/14 02:01:47;;;;;;;3.75;3.28;;;22.70;99.90;;;;;;5091609;28;20074;-74
2022/07/14 02:04:16;;;;;;;5.82;3.60;;;22.60;99.90;;;;;;5073071;28;20388;-74
2022/07/14 02:06:50;;;;;;;5.38;3.65;;;22.50;99.90;;;;;;5071713;28;20369;-74
2022/07/14 02:09:17;;;;;;;5.07;3.17;;;22.50;99.90;;;;;;5070721;28;20413;-74
2022/07/14 02:14:30;;;;;;;3.75;3.47;;;22.50;99.90;;;;;;5071237;28;20059;-74
2022/07/14 02:16:56;;;;;;;3.92;3.58;;;22.50;99.90;;;;;;5084164;28;20039;-74
2022/07/14 02:19:23;;;;;;;4.20;3.80;;;22.40;99.90;;;;;;5089873;28;20032;-74
2022/07/14 02:21:53;;;;;;;4.82;3.85;;;22.50;99.90;;;;;;5071321;28;20087;-73
2022/07/14 02:24:20;;;;;;;4.90;3.15;;;22.50;99.90;;;;;;5069667;28;20066;-74
2022/07/14 02:26:46;;;;;;;5.07;3.45;;;22.50;99.90;;;;;;5083812;28;20039;-74
2022/07/14 02:29:12;;;;;;;3.30;3.08;;;22.40;99.90;;;;;;5071005;28;20023;-75
2022/07/14 02:31:38;;;;;;;4.22;3.35;;;22.30;99.90;;;;;;5070410;28;20495;-75
2022/07/14 02:34:04;;;;;;;4.28;3.85;;;22.30;99.90;;;;;;5086824;28;20121;-74
2022/07/14 02:36:31;;;;;;;3.55;3.10;;;22.40;99.90;;;;;;5090000;28;20107;-73
2022/07/14 02:38:57;;;;;;;2.55;2.45;;;22.50;99.90;;;;;;5070431;28;20028;-74
2022/07/14 02:41:23;;;;;;;3.80;3.58;;;22.40;99.90;;;;;;5090789;28;20020;-74
2022/07/14 02:43:49;;;;;;;7.65;2.97;;;22.30;99.90;;;;;;5092367;28;20112;-73
2022/07/14 02:46:15;;;;;;;4.28;3.15;;;22.30;99.90;;;;;;5091143;28;20557;-74
2022/07/14 02:48:41;;;;;;;4.18;3.70;;;22.40;99.90;;;;;;5092555;28;20035;-74
2022/07/14 02:51:09;;;;;;;5.72;3.17;;;22.50;99.90;;;;;;5090988;28;20020;-74
2022/07/14 02:53:36;;;;;;;5.28;4.18;;;22.60;99.90;;;;;;5090976;28;20462;-73
2022/07/14 02:56:03;;;;;;;5.00;4.55;;;22.60;99.90;;;;;;5091711;28;20031;-74
2022/07/14 02:58:29;;;;;;;3.40;3.10;;;22.60;99.90;;;;;;5091443;28;20024;-74
2022/07/14 03:00:56;;;;;;;7.32;2.67;;;22.60;99.90;;;;;;5090943;28;20440;-74
2022/07/14 03:03:23;;;;;;;3.42;3.13;;;22.50;99.90;;;;;;5090626;28;20084;-75
2022/07/14 03:05:49;;;;;;;3.15;2.85;;;22.40;99.90;;;;;;5091797;28;20027;-74
2022/07/14 03:08:15;;;;;;;4.10;3.70;;;22.40;99.90;;;;;;5091361;28;20031;-73
2022/07/14 03:10:41;;;;;;;5.20;2.90;;;22.40;99.90;;;;;;5089113;28;20020;-74
2022/07/14 03:13:07;;;;;;;7.82;3.28;;;22.40;99.90;;;;;;5072646;28;20100;-73
2022/07/14 03:15:33;;;;;;;3.38;3.05;;;22.40;99.90;;;;;;5071333;28;20017;-74
2022/07/14 03:17:59;;;;;;;3.25;2.90;;;22.40;99.90;;;;;;5072657;28;20046;-74
2022/07/14 03:20:25;;;;;;;5.53;2.83;;;22.40;99.90;;;;;;5072974;28;20047;-74
2022/07/14 03:22:51;;;;;;;2.60;2.45;;;22.40;99.90;;;;;;5076388;28;20507;-75
2022/07/14 03:25:17;;;;;;;5.13;2.70;;;22.50;99.90;;;;;;5093492;28;20024;-74
2022/07/14 03:27:46;;;;;;;6.70;3.35;;;22.50;99.90;;;;;;5103765;28;20058;-73
2022/07/14 03:30:12;;;;;;;7.18;3.08;;;22.60;99.90;;;;;;5101797;28;20028;-73
2022/07/14 03:32:41;;;;;;;4.10;3.40;;;22.50;99.90;;;;;;5100729;28;20024;-75
2022/07/14 03:35:08;;;;;;;8.52;3.17;;;22.50;99.90;;;;;;5100030;28;20062;-74
2022/07/14 03:37:35;;;;;;;8.13;3.15;;;22.40;99.90;;;;;;5102515;28;20028;-73
2022/07/14 03:40:02;;;;;;;3.25;3.05;;;22.40;99.90;;;;;;5101234;28;20021;-73
2022/07/14 03:42:28;;;;;;;4.57;2.65;;;22.50;99.90;;;;;;5102013;28;20020;-74
2022/07/14 03:44:55;;;;;;;6.05;3.22;;;22.50;99.90;;;;;;5096000;28;20028;-74
2022/07/14 03:47:21;;;;;;;6.18;3.83;;;22.50;99.90;;;;;;5081068;28;20097;-73
2022/07/14 03:49:47;;;;;;;6.97;4.22;;;22.40;99.90;;;;;;5073546;28;20025;-74
2022/07/14 03:52:13;;;;;;;3.55;3.20;;;22.20;99.90;;;;;;5092339;28;20027;-74
2022/07/14 03:54:42;;;;;;;4.80;3.53;;;22.10;99.90;;;;;;5091562;28;20021;-74
2022/07/14 03:57:08;;;;;;;4.75;3.90;;;22.20;99.90;;;;;;5092408;28;20029;-74
2022/07/14 03:59:40;;;;;;;3.88;3.20;;;22.20;99.90;;;;;;5091947;28;20016;-74
2022/07/14 04:02:07;;;;;;;7.78;3.60;;;22.30;99.90;;;;;;5084481;28;20021;-75
2022/07/14 04:04:34;;;;;;;5.93;3.35;;;22.30;99.90;;;;;;5071463;28;20020;-73
2022/07/14 04:07:00;;;;;;;7.93;4.60;;;22.40;99.90;;;;;;5071796;28;20021;-74
2022/07/14 04:09:26;;;;;;;4.90;3.30;;;22.40;99.90;;;;;;5071492;28;20025;-75
2022/07/14 04:11:52;;;;;;;7.60;3.65;;;22.40;99.90;;;;;;5075684;28;20044;-73
2022/07/14 04:14:19;;;;;;;6.15;3.42;;;22.50;99.90;;;;;;5097688;28;20039;-76
2022/07/14 04:16:44;;;;;;;7.18;3.65;;;22.40;99.90;;;;;;5098311;28;20021;-75
2022/07/14 04:19:10;;;;;;;4.32;3.38;;;22.40;99.90;;;;;;5087416;28;20031;-74
2022/07/14 04:21:39;;;;;;;7.00;3.47;;;22.30;99.90;;;;;;5076358;28;20024;-75
2022/07/14 04:24:05;;;;;;;6.15;3.17;;;22.30;99.90;;;;;;5077260;28;20375;-75
2022/07/14 04:26:32;;;;;;;4.70;3.22;;;22.20;99.90;;;;;;5088747;28;20058;-75
2022/07/14 04:28:58;;;;;;;4.20;3.80;;;22.20;99.90;;;;;;5085802;28;20093;-74
2022/07/14 04:31:24;;;;;;;5.75;3.50;;;22.40;99.90;;;;;;5093843;28;20463;-74
2022/07/14 04:33:50;;;;;;;5.55;3.13;;;22.50;99.90;;;;;;5094393;28;20401;-73
2022/07/14 04:36:16;;;;;;;5.75;2.85;;;22.50;99.90;;;;;;5085652;28;20032;-73
2022/07/14 04:38:42;;;;;;;5.07;3.45;;;22.60;99.90;;;;;;5073060;28;20024;-73
2022/07/14 04:41:11;;;;;;;4.65;2.92;;;22.50;99.90;;;;;;5074147;28;20044;-74
2022/07/14 04:43:37;;;;;;;6.47;3.28;;;22.50;99.90;;;;;;5092445;28;20515;-73
2022/07/14 04:46:03;;;;;;;6.03;4.32;;;22.50;99.90;;;;;;5094632;28;20115;-74
2022/07/14 04:48:29;;;;;;;5.90;3.60;;;22.40;99.90;;;;;;5092543;28;20093;-75
2022/07/14 04:53:39;;;;;;;7.47;3.58;;;22.70;99.90;;;;;;5081525;28;20034;-74
2022/07/14 04:56:05;;;;;;;4.25;3.47;;;22.80;99.90;;;;;;5073068;28;20021;-73
2022/07/14 04:58:31;;;;;;;12.57;3.95;;;23.00;99.90;;;;;;5073135;28;20183;-73
2022/07/14 05:01:00;;;;;;;38.28;10.20;;;23.20;99.90;;;;;;5072960;28;20025;-74
2022/07/14 05:03:26;;;;;;;23.05;9.00;;;23.40;99.90;;;;;;5073715;28;20051;-74
2022/07/14 05:05:52;;;;;;;15.60;5.80;;;23.60;99.90;;;;;;5077657;28;20024;-74
2022/07/14 05:08:18;;;;;;;11.02;3.78;;;23.80;99.90;;;;;;5093212;28;20050;-74
2022/07/14 05:10:44;;;;;;;11.18;5.15;;;24.10;99.90;;;;;;5090172;28;20016;-74
2022/07/14 05:13:10;;;;;;;13.52;5.10;;;24.20;99.90;;;;;;5080861;28;20025;-74
2022/07/14 05:15:35;;;;;;;5.15;3.58;;;24.30;99.90;;;;;;5072498;28;20021;-73
2022/07/14 05:18:01;;;;;;;4.20;3.00;;;24.40;99.90;;;;;;5072530;28;20031;-73
2022/07/14 05:20:27;;;;;;;4.97;3.25;;;24.50;99.90;;;;;;5072054;28;20127;-73
2022/07/14 05:22:52;;;;;;;10.23;6.75;;;24.50;99.90;;;;;;5075707;28;20020;-73
2022/07/14 05:25:18;;;;;;;11.57;8.88;;;24.60;99.90;;;;;;5088763;28;20028;-73
2022/07/14 05:27:44;;;;;;;13.90;7.65;;;24.80;99.90;;;;;;5079937;28;20020;-74
2022/07/14 05:30:11;;;;;;;11.75;6.38;;;24.70;99.90;;;;;;5079307;28;20028;-74
2022/07/14 05:32:37;;;;;;;6.18;4.18;;;24.70;99.90;;;;;;5087646;28;20024;-74
2022/07/14 05:35:04;;;;;;;15.95;6.68;;;24.70;99.90;;;;;;5080276;28;20077;-73
2022/07/14 05:37:30;;;;;;;10.45;6.43;;;24.80;99.90;;;;;;5075122;28;20020;-73
2022/07/14 05:39:56;;;;;;;13.57;7.28;;;24.90;99.90;;;;;;5078647;28;20027;-75
2022/07/14 05:42:22;;;;;;;12.27;5.85;;;25.00;99.90;;;;;;5077509;28;20328;-75
2022/07/14 05:44:50;;;;;;;13.48;3.33;;;25.20;99.90;;;;;;5080824;28;20031;-75
2022/07/14 05:47:17;;;;;;;11.00;3.35;;;25.30;99.90;;;;;;5088967;28;20038;-75
2022/07/14 05:49:44;;;;;;;7.90;3.13;;;25.20;99.90;;;;;;5088093;28;20089;-74
2022/07/14 05:52:13;;;;;;;3.95;2.70;;;25.30;99.90;;;;;;5089780;28;20118;-74
2022/07/14 05:54:39;;;;;;;8.25;2.53;;;25.50;99.90;;;;;;5090786;28;20024;-73
2022/07/14 05:57:05;;;;;;;4.15;2.60;;;25.60;99.90;;;;;;5091642;28;20024;-75
2022/07/14 05:59:31;;;;;;;8.25;2.75;;;25.80;99.90;;;;;;5090577;28;20664;-74
2022/07/14 06:01:57;;;;;;;4.82;2.60;;;25.90;99.90;;;;;;5092209;28;20026;-73
2022/07/14 06:04:23;;;;;;;5.10;2.70;;;26.00;99.90;;;;;;5091273;28;20472;-73
2022/07/14 06:06:49;;;;;;;7.60;2.58;;;26.00;99.90;;;;;;5092344;28;20012;-73
2022/07/14 06:09:15;;;;;;;6.60;2.90;;;26.00;99.90;;;;;;5084207;28;20087;-74
2022/07/14 06:11:48;;;;;;;11.18;3.70;;;26.00;99.90;;;;;;5080106;28;20028;-75
2022/07/14 06:14:15;;;;;;;6.88;3.42;;;25.80;99.90;;;;;;5087987;28;20028;-74
2022/07/14 06:16:41;;;;;;;13.07;4.85;;;25.50;99.90;;;;;;5079039;28;20099;-74
2022/07/14 06:19:07;;;;;;;5.13;4.63;;;25.20;99.90;;;;;;5091542;28;20028;-74
2022/07/14 06:21:33;;;;;;;13.30;5.22;;;25.10;99.90;;;;;;5103534;28;20024;-73
2022/07/14 06:23:59;;;;;;;6.72;5.47;;;25.10;99.90;;;;;;5104400;28;20028;-73
2022/07/14 06:26:25;;;;;;;16.55;5.32;;;25.20;99.90;;;;;;5103517;28;20024;-73
2022/07/14 06:28:50;;;;;;;11.80;4.43;;;25.30;99.90;;;;;;5105982;28;20031;-74
2022/07/14 06:31:16;;;;;;;6.07;3.65;;;25.50;99.90;;;;;;5106163;28;20032;-74
2022/07/14 06:33:43;;;;;;;9.27;4.10;;;25.60;99.90;;;;;;5095153;28;20024;-74
2022/07/14 06:36:09;;;;;;;7.90;3.42;;;25.80;99.90;;;;;;5077806;28;20024;-75
2022/07/14 06:38:35;;;;;;;3.00;2.72;;;25.90;99.90;;;;;;5070183;28;20036;-63
2022/07/14 06:41:01;;;;;;;7.72;3.63;;;26.10;99.90;;;;;;5070041;28;20016;-63
2022/07/14 06:43:27;;;;;;;8.23;4.80;;;26.30;99.90;;;;;;5072974;28;20032;-62
2022/07/14 06:46:18;;;;;;;12.05;3.03;;;26.50;99.90;;;;;;5072371;28;20575;-62
2022/07/14 06:48:46;;;;;;;9.02;3.60;;;26.60;99.90;;;;;;5083728;28;20036;-63
2022/07/14 06:51:13;;;;;;;13.90;4.80;;;26.70;99.90;;;;;;5090689;28;20363;-62
2022/07/14 06:53:39;;;;;;;15.48;5.07;;;26.80;99.90;;;;;;5074483;28;20035;-63
2022/07/14 06:56:05;;;;;;;9.43;4.68;;;26.80;99.90;;;;;;5092138;28;20334;-62
2022/07/14 06:58:30;;;;;;;18.52;5.50;;;26.80;99.90;;;;;;5089245;28;20117;-61
2022/07/14 07:00:56;;;;;;;18.85;4.38;;;26.80;99.90;;;;;;5090352;28;20043;-63
2022/07/14 07:03:27;;;;;;;23.30;6.30;;;26.90;99.90;;;;;;5092562;28;20024;-62
2022/07/14 07:08:38;;;;;;;32.92;6.82;;;27.20;99.90;;;;;;5070528;28;20520;-63
2022/07/14 07:11:04;;;;;;;16.35;5.47;;;27.30;99.90;;;;;;5070686;28;20118;-63
2022/07/14 07:13:29;;;;;;;14.65;4.97;;;27.50;99.90;;;;;;5074811;28;20097;-66
2022/07/14 07:15:55;;;;;;;16.45;4.78;;;27.50;99.90;;;;;;5076831;28;20029;-62
2022/07/14 07:18:21;;;;;;;16.23;4.07;;;27.60;99.90;;;;;;5075299;28;20068;-63
2022/07/14 07:20:47;;;;;;;13.68;4.95;;;27.50;99.90;;;;;;5076619;28;20032;-63
2022/07/14 07:23:12;;;;;;;10.73;3.65;;;27.40;99.90;;;;;;5076218;28;20035;-63
2022/07/14 07:25:38;;;;;;;22.23;4.10;;;27.30;99.90;;;;;;5061086;28;20448;-63
2022/07/14 07:28:04;;;;;;;15.90;4.22;;;27.10;99.90;;;;;;5080617;28;20109;-63
2022/07/14 07:30:30;;;;;;;16.02;5.00;;;27.00;99.90;;;;;;5081326;28;20035;-63
2022/07/14 07:32:56;;;;;;;8.75;3.70;;;26.80;99.90;;;;;;5080124;28;20020;-63
2022/07/14 07:35:22;;;;;;;17.20;3.70;;;26.70;99.90;;;;;;5081445;28;20028;-66
2022/07/14 07:37:49;;;;;;;8.68;3.13;;;26.70;99.90;;;;;;5085843;28;20103;-64
2022/07/14 07:40:15;;;;;;;7.60;3.25;;;26.70;99.90;;;;;;5082733;28;20128;-64
2022/07/14 07:42:41;;;;;;;6.88;2.95;;;26.70;99.90;;;;;;5085523;28;20503;-65
2022/07/14 07:45:08;;;;;;;9.70;3.15;;;26.60;99.90;;;;;;5082674;28;20032;-65
2022/07/14 07:47:35;;;;;;;7.63;2.65;;;26.60;99.90;;;;;;5080747;28;20032;-65
2022/07/14 07:50:01;;;;;;;4.40;2.75;;;26.70;99.90;;;;;;5082260;28;20024;-65
2022/07/14 07:52:27;;;;;;;4.18;2.13;;;26.70;99.90;;;;;;5078413;28;20028;-64
2022/07/14 07:54:53;;;;;;;7.10;2.65;;;26.80;99.90;;;;;;5080981;28;20055;-64
2022/07/14 07:57:19;;;;;;;3.70;2.40;;;27.00;99.90;;;;;;5081920;28;20557;-65
2022/07/14 07:59:46;;;;;;;5.78;2.97;;;27.10;99.90;;;;;;5080036;28;20502;-64
2022/07/14 08:02:12;;;;;;;8.63;3.90;;;27.20;99.90;;;;;;5078021;28;20032;-65
2022/07/14 08:04:38;;;;;;;3.85;3.17;;;27.30;99.90;;;;;;5081823;28;20081;-65
2022/07/14 08:07:04;;;;;;;5.43;2.88;;;27.40;99.90;;;;;;5081458;28;20028;-65
2022/07/14 08:09:29;;;;;;;9.93;3.03;;;27.60;99.90;;;;;;5081849;28;20050;-63
2022/07/14 08:11:55;;;;;;;4.63;2.50;;;27.90;99.90;;;;;;5082294;28;20958;-64
2022/07/14 08:17:05;;;;;;;6.63;3.45;;;28.10;99.90;;;;;;5080703;28;20094;-67
2022/07/14 08:19:32;;;;;;;10.68;2.22;;;28.40;99.90;;;;;;5076191;28;20436;-65
2022/07/14 08:21:58;;;;;;;1.33;1.30;;;28.40;99.90;;;;;;5080180;28;20489;-64
2022/07/14 08:24:24;;;;;;;9.55;2.97;;;28.40;99.90;;;;;;5082853;28;20032;-64
2022/07/14 08:26:51;;;;;;;2.83;1.85;;;28.30;99.90;;;;;;5080664;28;20020;-65
2022/07/14 08:29:16;;;;;;;3.90;1.67;;;28.30;99.90;;;;;;5080320;28;20028;-64
2022/07/14 08:31:42;;;;;;;5.15;1.83;;;28.20;99.90;;;;;;5084480;28;20024;-64
2022/07/14 08:34:08;;;;;;;3.58;1.80;;;28.30;99.90;;;;;;5082520;28;20024;-65
2022/07/14 08:36:34;;;;;;;5.60;2.33;;;28.30;99.90;;;;;;5080168;28;20035;-67
2022/07/14 08:39:01;;;;;;;13.15;2.10;;;28.30;99.90;;;;;;5087792;28;20019;-63
2022/07/14 08:41:28;;;;;;;7.82;1.75;;;28.00;99.90;;;;;;5085941;28;20024;-62
2022/07/14 08:43:55;;;;;;;5.93;2.10;;;28.00;99.90;;;;;;5087272;28;20099;-62
2022/07/14 08:46:22;;;;;;;4.60;2.17;;;27.90;99.90;;;;;;5082632;28;20032;-64
2022/07/14 08:48:48;;;;;;;11.82;2.85;;;27.90;99.90;;;;;;5087099;28;20024;-63
2022/07/14 08:51:14;;;;;;;11.45;3.03;;;27.90;99.90;;;;;;5079138;28;20078;-63
2022/07/14 08:53:41;;;;;;;2.83;1.60;;;27.90;99.90;;;;;;5083441;28;20108;-64
2022/07/14 08:56:08;;;;;;;3.50;2.40;;;28.00;99.90;;;;;;5087875;28;20024;-63
2022/07/14 08:58:34;;;;;;;11.82;3.03;;;28.10;99.90;;;;;;5082888;28;20023;-64
2022/07/14 09:01:00;;;;;;;3.78;2.00;;;27.90;99.90;;;;;;5085511;28;20103;-64
2022/07/14 09:03:25;;;;;;;2.47;1.55;;;27.90;99.90;;;;;;5084843;28;20044;-63
2022/07/14 09:05:53;;;;;;;6.72;2.33;;;27.90;99.90;;;;;;5085197;28;20435;-64
2022/07/14 09:08:19;;;;;;;3.40;2.00;;;28.00;99.90;;;;;;5082807;28;20111;-63
2022/07/14 09:10:46;;;;;;;5.95;1.95;;;27.90;99.90;;;;;;5082875;28;20027;-63
2022/07/14 09:13:12;;;;;;;2.55;1.70;;;27.70;99.90;;;;;;5086841;28;20024;-63
2022/07/14 09:15:44;;;;;;;3.47;2.42;;;27.50;99.90;;;;;;5079518;28;20041;-63
2022/07/14 09:18:17;;;;;;;3.00;2.35;;;27.40;99.90;;;;;;5083759;28;20030;-64
2022/07/14 09:20:43;;;;;;;2.38;2.00;;;27.40;99.90;;;;;;5079628;28;20429;-63
2022/07/14 09:23:09;;;;;;;6.88;2.42;;;27.20;99.90;;;;;;5080845;28;20394;-64
2022/07/14 09:25:37;;;;;;;5.88;2.13;;;27.10;99.90;;;;;;5082585;28;20054;-63
2022/07/14 09:28:03;;;;;;;3.13;2.20;;;27.20;99.90;;;;;;5087152;28;20024;-64
2022/07/14 09:30:31;;;;;;;2.25;1.80;;;27.30;99.90;;;;;;5088332;28;20028;-65
2022/07/14 09:33:02;;;;;;;2.15;1.67;;;27.50;99.90;;;;;;5091315;28;20016;-65
2022/07/14 09:35:34;;;;;;;6.70;2.10;;;27.40;99.90;;;;;;5085974;28;20482;-65
2022/07/14 09:38:12;;;;;;;3.97;2.05;;;27.50;99.90;;;;;;5082672;28;20096;-64
2022/07/14 09:40:38;;;;;;;3.58;2.45;;;27.50;99.90;;;;;;5082457;28;20060;-64
2022/07/14 09:43:09;;;;;;;6.60;1.80;;;27.80;99.90;;;;;;5084654;28;20379;-64
2022/07/14 09:45:37;;;;;;;4.45;2.88;;;28.00;99.90;;;;;;5075250;28;20023;-64
2022/07/14 09:48:08;;;;;;;2.28;2.08;;;28.20;99.90;;;;;;5083778;28;20510;-65
2022/07/14 09:50:43;;;;;;;;;;;28.50;99.90;;;;;;5082458;28;20025;-64
2022/07/14 09:53:10;;;;;;;8.77;2.35;;;28.60;99.90;;;;;;5083058;28;19912;-65
2022/07/14 09:55:36;;;;;;;9.30;1.50;;;28.70;99.90;;;;;;5081952;28;20024;-64
2022/07/14 09:58:02;;;;;;;4.15;2.10;;;28.70;99.90;;;;;;5083964;28;20482;-64
2022/07/14 10:00:29;;;;;;;8.75;2.10;;;28.70;99.90;;;;;;5085652;28;20071;-64
2022/07/14 10:02:55;;;;;;;5.85;2.10;;;28.60;99.90;;;;;;5090329;28;20016;-65
2022/07/14 10:05:21;;;;;;;4.38;1.95;;;28.60;99.90;;;;;;5085212;28;20111;-65
2022/07/14 10:07:50;;;;;;;5.43;2.30;;;28.50;99.90;;;;;;5081968;28;20374;-63
2022/07/14 10:10:16;;;;;;;8.48;2.03;;;28.60;99.90;;;;;;5082957;28;20024;-64
2022/07/14 10:12:42;;;;;;;2.50;1.55;;;28.60;99.90;;;;;;5079197;28;20039;-64
2022/07/14 10:15:10;;;;;;;2.00;1.67;;;28.70;99.90;;;;;;5084005;28;20047;-64
2022/07/14 10:17:38;;;;;;;4.63;2.28;;;28.80;99.90;;;;;;5085984;28;20137;-64
2022/07/14 10:20:11;;;;;;;4.28;1.60;;;28.80;99.90;;;;;;5087640;28;20027;-64
2022/07/14 10:22:39;;;;;;;4.97;1.60;;;28.80;99.90;;;;;;5082021;28;20025;-65
2022/07/14 10:25:06;;;;;;;2.38;2.17;;;28.70;99.90;;;;;;5087316;28;20027;-65
2022/07/14 10:27:32;;;;;;;4.85;2.05;;;28.70;99.90;;;;;;5082512;28;20020;-64
2022/07/14 10:29:58;;;;;;;6.28;1.90;;;28.70;99.90;;;;;;5083104;28;20027;-65
2022/07/14 10:32:55;;;;;;;2.70;2.47;;;28.80;99.90;;;;;;5082428;28;20042;-63
2022/07/14 10:35:56;;;;;;;5.72;2.92;;;28.80;99.90;;;;;;5076961;28;20033;-64
2022/07/14 10:38:22;;;;;;;7.78;2.05;;;29.10;99.90;;;;;;5085659;28;20111;-65
2022/07/14 10:40:55;;;;;;;4.45;2.58;;;29.50;99.90;;;;;;5082452;28;20412;-65
2022/07/14 10:43:27;;;;;;;2.08;1.50;;;29.90;99.90;;;;;;5087383;28;20037;-64
2022/07/14 10:45:55;;;;;;;7.85;2.42;;;30.00;99.90;;;;;;5081745;28;20381;-65
2022/07/14 10:48:36;;;;;;;9.57;1.45;;;30.00;99.90;;;;;;5079109;28;20037;-64
2022/07/14 10:51:14;;;;;;;2.42;1.75;;;29.90;99.90;;;;;;5080015;28;20032;-65
2022/07/14 10:54:01;;;;;;;2.50;2.30;;;30.00;99.90;;;;;;5080827;28;20040;-66
2022/07/14 10:56:28;;;;;;;6.53;2.28;;;30.30;99.90;;;;;;5081287;28;20031;-65
2022/07/14 10:59:25;;;;;;;3.72;2.20;;;30.40;99.90;;;;;;5083064;28;20028;-64
2022/07/14 11:02:14;;;;;;;3.25;2.10;;;30.40;99.90;;;;;;5083261;28;20043;-64
2022/07/14 11:05:11;;;;;;;4.25;1.00;;;30.30;99.90;;;;;;5083731;28;20028;-65
2022/07/14 11:07:51;;;;;;;1.75;1.45;;;30.00;99.90;;;;;;5083362;28;20028;-65
2022/07/14 11:10:19;;;;;;;2.97;2.10;;;29.90;99.90;;;;;;5082663;28;20040;-64
2022/07/14 11:13:06;;;;;;;7.25;2.33;;;30.00;99.90;;;;;;5082743;28;20074;-65
2022/07/14 11:15:43;;;;;;;5.80;1.77;;;30.00;99.90;;;;;;5081292;28;20458;-64
2022/07/14 11:18:18;;;;;;;7.32;2.30;;;30.00;99.90;;;;;;5080463;28;20498;-65
2022/07/14 11:20:52;;;;;;;3.90;1.92;;;30.00;99.90;;;;;;5085039;28;20048;-65
2022/07/14 11:23:22;;;;;;;2.95;1.55;;;30.00;99.90;;;;;;5078783;28;20028;-65
2022/07/14 11:25:52;;;;;;;4.53;1.45;;;29.90;99.90;;;;;;5082779;28;20027;-65
2022/07/14 11:28:50;;;;;;;6.22;2.08;;;29.90;99.90;;;;;;5086782;28;20039;-65
2022/07/14 11:31:18;;;;;;;3.75;1.10;;;30.00;99.90;;;;;;5076464;28;20024;-65
2022/07/14 11:36:38;;;;;;;6.30;1.15;;;30.30;96.30;;;;;;5084308;28;20039;-63
2022/07/14 11:39:16;;;;;;;1.40;1.10;;;30.60;99.20;;;;;;5080568;28;20028;-62
2022/07/14 11:41:44;;;;;;;8.13;1.58;;;30.60;99.90;;;;;;5085377;28;20069;-63
2022/07/14 11:44:40;;;;;;;3.25;1.23;;;30.60;95.50;;;;;;5083783;28;20024;-61
2022/07/14 11:47:17;;;;;;;4.32;1.55;;;30.50;99.10;;;;;;5084176;28;20036;-65
2022/07/14 11:49:55;;;;;;;3.00;1.20;;;30.70;99.90;;;;;;5092383;28;20080;-65
2022/07/14 11:52:26;;;;;;;7.95;2.08;;;30.90;99.90;;;;;;5073713;28;21639;-63
2022/07/14 11:54:56;;;;;;;3.35;2.42;;;30.90;99.90;;;;;;5083047;28;20126;-64
2022/07/14 11:57:22;;;;;;;8.00;3.83;;;31.00;99.90;;;;;;5085938;28;20446;-61
2022/07/14 11:59:49;;;;;;;3.65;2.25;;;30.90;99.90;;;;;;5081547;28;20032;-62
2022/07/14 12:02:18;;;;;;;4.10;3.03;;;30.50;99.90;;;;;;5083583;28;20024;-62
2022/07/14 12:05:03;;;;;;;4.38;2.45;;;30.00;99.90;;;;;;5083744;28;20028;-63
2022/07/14 12:07:48;;;;;;;6.40;2.40;;;29.80;99.90;;;;;;5081742;28;20486;-62
2022/07/14 12:10:16;;;;;;;5.07;1.52;;;29.70;99.90;;;;;;5082461;28;20401;-62
2022/07/14 12:12:44;;;;;;;5.13;2.88;;;29.60;99.90;;;;;;5081911;28;20100;-63
2022/07/14 12:15:11;;;;;;;3.88;2.20;;;29.50;99.90;;;;;;5087208;28;20041;-61
2022/07/14 12:17:48;;;;;;;5.70;2.38;;;29.40;99.90;;;;;;5087572;28;20035;-63
2022/07/14 12:20:14;;;;;;;6.28;3.17;;;29.20;99.90;;;;;;5088603;28;20028;-63
2022/07/14 12:23:04;;;;;;;5.53;2.53;;;29.10;99.90;;;;;;5084587;28;20029;-60
2022/07/14 12:25:41;;;;;;;4.53;2.40;;;29.20;99.90;;;;;;5084137;28;20028;-63
2022/07/14 12:28:11;;;;;;;3.95;1.92;;;29.40;99.90;;;;;;5086107;28;20071;-61
2022/07/14 12:30:47;;;;;;;10.02;2.10;;;29.50;99.90;;;;;;5084486;28;20504;-62
2022/07/14 12:33:15;;;;;;;3.95;1.85;;;29.20;99.90;;;;;;5083146;28;20028;-61
2022/07/14 12:35:44;;;;;;;4.60;1.67;;;29.00;99.90;;;;;;5090628;28;20028;-61
2022/07/14 12:38:16;;;;;;;5.15;2.42;;;29.00;99.90;;;;;;5086852;28;20097;-62
2022/07/14 12:41:03;;;;;;;7.25;2.55;;;29.10;99.90;;;;;;5090538;28;20110;-63
2022/07/14 12:43:38;;;;;;;3.33;1.70;;;29.30;99.90;;;;;;5080178;28;20375;-63
2022/07/14 12:46:08;;;;;;;5.75;2.10;;;29.20;99.90;;;;;;5086463;28;20100;-61
2022/07/14 12:48:54;;;;;;;7.60;1.98;;;29.30;99.90;;;;;;5090912;28;20024;-62
2022/07/14 12:51:29;;;;;;;6.47;2.05;;;29.50;99.90;;;;;;5087343;28;20111;-61
2022/07/14 12:54:11;;;;;;;4.22;1.60;;;29.50;99.90;;;;;;5090219;28;20039;-63
2022/07/14 12:56:43;;;;;;;1.42;1.05;;;29.50;99.90;;;;;;5086918;28;20017;-64
2022/07/14 12:59:17;;;;;;;4.20;1.50;;;29.50;99.90;;;;;;5088601;28;20029;-62
2022/07/14 13:02:05;;;;;;;9.30;2.17;;;29.70;99.90;;;;;;5094998;28;20103;-62
2022/07/14 13:04:47;;;;;;;2.20;1.75;;;29.80;99.90;;;;;;5091018;28;20490;-63
2022/07/14 13:07:15;;;;;;;6.35;1.80;;;29.60;99.90;;;;;;5084685;28;20063;-63